sensor_id;sensor_type;location;lat;lon;timestamp;P1;durP1;ratioP1;P2;durP2;ratioP2
26824;SDS011;14402;48.178;11.566;2022-10-16T00:00:25;2.3;;;1.5;;
26824;SDS011;14402;48.178;11.566;2022-10-16T00:00:55;3.0;;;1.6;;
26824;SDS011;14402;48.178;11.566;2022-10-16T00:01:26;3.8;;;1.7;;
26824;SDS011;14402;48.178;11.566;2022-10-16T00:01:55;3.8;;;1.7;;
26824;SDS011;14402;48.178;11.566;2022-10-16T00:02:25;3.8;;;1.7;;
26824;SDS011;14402;48.178;11.566;2022-10-16T00:02:55;3.7;;;1.6;;
26824;SDS011;14402;48.178;11.566;2022-10-16T00:03:26;3.5;;;1.5;;
26824;SDS011;14402;48.178;11.566;2022-10-16T00:03:56;3.5;;;1.5;;
26824;SDS011;14402;48.178;11.566;2022-10-16T00:04:26;3.5;;;1.5;;
26824;SDS011;14402;48.178;11.566;2022-10-16T00:04:57;2.9;;;1.5;;
26824;SDS011;14402;48.178;11.566;2022-10-16T00:05:26;2.3;;;1.5;;
26824;SDS011;14402;48.178;11.566;2022-10-16T00:05:58;2.3;;;1.5;;
26824;SDS011;14402;48.178;11.566;2022-10-16T00:06:27;2.3;;;1.5;;
26824;SDS011;14402;48.178;11.566;2022-10-16T00:06:56;2.9;;;1.5;;
26824;SDS011;14402;48.178;11.566;2022-10-16T00:07:26;3.5;;;1.5;;
26824;SDS011;14402;48.178;11.566;2022-10-16T00:07:56;3.5;;;1.5;;
26824;SDS011;14402;48.178;11.566;2022-10-16T00:08:27;3.5;;;1.5;;
26824;SDS011;14402;48.178;11.566;2022-10-16T00:08:57;4.1;;;1.5;;
26824;SDS011;14402;48.178;11.566;2022-10-16T00:09:27;4.7;;;1.4;;
26824;SDS011;14402;48.178;11.566;2022-10-16T00:09:57;4.7;;;1.4;;
26824;SDS011;14402;48.178;11.566;2022-10-16T00:10:27;4.7;;;1.4;;
26824;SDS011;14402;48.178;11.566;2022-10-16T00:10:59;4.4;;;1.5;;
26824;SDS011;14402;48.178;11.566;2022-10-16T00:11:28;4.2;;;1.7;;
26824;SDS011;14402;48.178;11.566;2022-10-16T00:11:57;4.2;;;1.7;;
26824;SDS011;14402;48.178;11.566;2022-10-16T00:12:27;4.2;;;1.7;;
26824;SDS011;14402;48.178;11.566;2022-10-16T00:12:57;3.8;;;2.0;;
26824;SDS011;14402;48.178;11.566;2022-10-16T00:13:28;3.5;;;2.2;;
26824;SDS011;14402;48.178;11.566;2022-10-16T00:13:58;3.5;;;2.2;;
26824;SDS011;14402;48.178;11.566;2022-10-16T00:14:28;3.5;;;2.2;;
26824;SDS011;14402;48.178;11.566;2022-10-16T00:14:58;4.8;;;2.2;;
26824;SDS011;14402;48.178;11.566;2022-10-16T00:15:28;6.0;;;2.2;;
26824;SDS011;14402;48.178;11.566;2022-10-16T00:15:59;6.0;;;2.2;;
26824;SDS011;14402;48.178;11.566;2022-10-16T00:16:28;6.0;;;2.2;;
26824;SDS011;14402;48.178;11.566;2022-10-16T00:16:58;4.7;;;2.0;;
26824;SDS011;14402;48.178;11.566;2022-10-16T00:17:30;3.3;;;1.7;;
26824;SDS011;14402;48.178;11.566;2022-10-16T00:17:58;3.3;;;1.7;;
26824;SDS011;14402;48.178;11.566;2022-10-16T00:18:29;3.3;;;1.7;;
26824;SDS011;14402;48.178;11.566;2022-10-16T00:18:59;3.8;;;1.7;;
26824;SDS011;14402;48.178;11.566;2022-10-16T00:19:29;4.4;;;1.7;;
26824;SDS011;14402;48.178;11.566;2022-10-16T00:19:59;4.4;;;1.7;;
26824;SDS011;14402;48.178;11.566;2022-10-16T00:20:29;4.4;;;1.7;;
26824;SDS011;14402;48.178;11.566;2022-10-16T00:21:01;3.2;;;1.7;;
26824;SDS011;14402;48.178;11.566;2022-10-16T00:21:30;2.1;;;1.7;;
26824;SDS011;14402;48.178;11.566;2022-10-16T00:21:59;2.1;;;1.7;;
26824;SDS011;14402;48.178;11.566;2022-10-16T00:22:29;2.1;;;1.7;;
26824;SDS011;14402;48.178;11.566;2022-10-16T00:22:59;2.8;;;1.7;;
26824;SDS011;14402;48.178;11.566;2022-10-16T00:23:29;3.4;;;1.6;;
26824;SDS011;14402;48.178;11.566;2022-10-16T00:24:00;3.4;;;1.6;;
26824;SDS011;14402;48.178;11.566;2022-10-16T00:24:30;3.4;;;1.6;;
26824;SDS011;14402;48.178;11.566;2022-10-16T00:25:00;4.2;;;1.7;;
26824;SDS011;14402;48.178;11.566;2022-10-16T00:25:30;5.0;;;1.7;;
26824;SDS011;14402;48.178;11.566;2022-10-16T00:26:01;5.0;;;1.7;;
26824;SDS011;14402;48.178;11.566;2022-10-16T00:26:30;5.0;;;1.7;;
26824;SDS011;14402;48.178;11.566;2022-10-16T00:27:00;3.7;;;1.7;;
26824;SDS011;14402;48.178;11.566;2022-10-16T00:27:30;2.4;;;1.6;;
26824;SDS011;14402;48.178;11.566;2022-10-16T00:28:00;2.4;;;1.6;;
26824;SDS011;14402;48.178;11.566;2022-10-16T00:28:31;2.4;;;1.6;;
26824;SDS011;14402;48.178;11.566;2022-10-16T00:29:00;2.2;;;1.6;;
26824;SDS011;14402;48.178;11.566;2022-10-16T00:29:31;2.0;;;1.6;;
26824;SDS011;14402;48.178;11.566;2022-10-16T00:30:01;2.0;;;1.6;;
26824;SDS011;14402;48.178;11.566;2022-10-16T00:30:31;2.0;;;1.6;;
26824;SDS011;14402;48.178;11.566;2022-10-16T00:31:02;2.0;;;1.5;;
26824;SDS011;14402;48.178;11.566;2022-10-16T00:31:31;2.1;;;1.4;;
26824;SDS011;14402;48.178;11.566;2022-10-16T00:32:01;2.1;;;1.4;;
26824;SDS011;14402;48.178;11.566;2022-10-16T00:32:31;2.1;;;1.4;;
26824;SDS011;14402;48.178;11.566;2022-10-16T00:33:01;2.3;;;1.3;;
26824;SDS011;14402;48.178;11.566;2022-10-16T00:33:31;2.5;;;1.2;;
26824;SDS011;14402;48.178;11.566;2022-10-16T00:34:01;2.5;;;1.2;;
26824;SDS011;14402;48.178;11.566;2022-10-16T00:34:32;2.5;;;1.2;;
26824;SDS011;14402;48.178;11.566;2022-10-16T00:35:02;2.6;;;1.4;;
26824;SDS011;14402;48.178;11.566;2022-10-16T00:35:32;2.7;;;1.5;;
26824;SDS011;14402;48.178;11.566;2022-10-16T00:36:02;2.7;;;1.5;;
26824;SDS011;14402;48.178;11.566;2022-10-16T00:36:32;2.7;;;1.5;;
26824;SDS011;14402;48.178;11.566;2022-10-16T00:37:02;2.8;;;1.5;;
26824;SDS011;14402;48.178;11.566;2022-10-16T00:37:32;2.8;;;1.5;;
26824;SDS011;14402;48.178;11.566;2022-10-16T00:38:02;2.8;;;1.5;;
26824;SDS011;14402;48.178;11.566;2022-10-16T00:38:33;2.8;;;1.5;;
26824;SDS011;14402;48.178;11.566;2022-10-16T00:39:03;2.3;;;1.5;;
26824;SDS011;14402;48.178;11.566;2022-10-16T00:39:33;1.9;;;1.4;;
26824;SDS011;14402;48.178;11.566;2022-10-16T00:40:03;1.9;;;1.4;;
26824;SDS011;14402;48.178;11.566;2022-10-16T00:40:33;1.9;;;1.4;;
26824;SDS011;14402;48.178;11.566;2022-10-16T00:41:03;3.0;;;1.5;;
26824;SDS011;14402;48.178;11.566;2022-10-16T00:41:33;4.2;;;1.5;;
26824;SDS011;14402;48.178;11.566;2022-10-16T00:42:03;4.2;;;1.5;;
26824;SDS011;14402;48.178;11.566;2022-10-16T00:42:33;4.2;;;1.5;;
26824;SDS011;14402;48.178;11.566;2022-10-16T00:43:04;4.8;;;1.5;;
26824;SDS011;14402;48.178;11.566;2022-10-16T00:43:40;5.5;;;1.5;;
26824;SDS011;14402;48.178;11.566;2022-10-16T00:44:40;5.5;;;1.5;;
26824;SDS011;14402;48.178;11.566;2022-10-16T00:44:42;5.5;;;1.5;;
26824;SDS011;14402;48.178;11.566;2022-10-16T00:45:04;4.3;;;1.4;;
26824;SDS011;14402;48.178;11.566;2022-10-16T00:45:34;3.2;;;1.3;;
26824;SDS011;14402;48.178;11.566;2022-10-16T00:46:05;3.2;;;1.3;;
26824;SDS011;14402;48.178;11.566;2022-10-16T00:46:35;3.2;;;1.3;;
26824;SDS011;14402;48.178;11.566;2022-10-16T00:47:04;3.9;;;1.3;;
26824;SDS011;14402;48.178;11.566;2022-10-16T00:47:34;4.6;;;1.4;;
26824;SDS011;14402;48.178;11.566;2022-10-16T00:48:06;4.6;;;1.4;;
26824;SDS011;14402;48.178;11.566;2022-10-16T00:48:34;4.6;;;1.4;;
26824;SDS011;14402;48.178;11.566;2022-10-16T00:49:05;3.2;;;1.5;;
26824;SDS011;14402;48.178;11.566;2022-10-16T00:49:34;1.9;;;1.6;;
26824;SDS011;14402;48.178;11.566;2022-10-16T00:50:06;1.9;;;1.6;;
26824;SDS011;14402;48.178;11.566;2022-10-16T00:50:35;1.9;;;1.6;;
26824;SDS011;14402;48.178;11.566;2022-10-16T00:51:06;2.1;;;1.5;;
26824;SDS011;14402;48.178;11.566;2022-10-16T00:51:36;2.3;;;1.4;;
26824;SDS011;14402;48.178;11.566;2022-10-16T00:52:05;2.3;;;1.4;;
26824;SDS011;14402;48.178;11.566;2022-10-16T00:52:35;2.3;;;1.4;;
26824;SDS011;14402;48.178;11.566;2022-10-16T00:53:05;2.5;;;1.8;;
26824;SDS011;14402;48.178;11.566;2022-10-16T00:53:35;2.8;;;2.1;;
26824;SDS011;14402;48.178;11.566;2022-10-16T00:54:06;2.8;;;2.1;;
26824;SDS011;14402;48.178;11.566;2022-10-16T00:54:35;2.8;;;2.1;;
26824;SDS011;14402;48.178;11.566;2022-10-16T00:55:05;3.7;;;1.9;;
26824;SDS011;14402;48.178;11.566;2022-10-16T00:55:35;4.6;;;1.7;;
26824;SDS011;14402;48.178;11.566;2022-10-16T00:56:06;4.6;;;1.7;;
26824;SDS011;14402;48.178;11.566;2022-10-16T00:56:36;4.6;;;1.7;;
26824;SDS011;14402;48.178;11.566;2022-10-16T00:57:06;3.8;;;1.8;;
26824;SDS011;14402;48.178;11.566;2022-10-16T00:57:36;2.9;;;1.8;;
26824;SDS011;14402;48.178;11.566;2022-10-16T00:58:06;2.9;;;1.8;;
26824;SDS011;14402;48.178;11.566;2022-10-16T00:58:36;2.9;;;1.8;;
26824;SDS011;14402;48.178;11.566;2022-10-16T00:59:07;3.9;;;2.1;;
26824;SDS011;14402;48.178;11.566;2022-10-16T00:59:37;4.9;;;2.4;;
26824;SDS011;14402;48.178;11.566;2022-10-16T01:00:08;4.9;;;2.4;;
26824;SDS011;14402;48.178;11.566;2022-10-16T01:00:36;4.9;;;2.4;;
26824;SDS011;14402;48.178;11.566;2022-10-16T01:01:06;4.0;;;2.5;;
26824;SDS011;14402;48.178;11.566;2022-10-16T01:01:36;3.1;;;2.5;;
26824;SDS011;14402;48.178;11.566;2022-10-16T01:02:08;3.1;;;2.5;;
26824;SDS011;14402;48.178;11.566;2022-10-16T01:02:37;3.1;;;2.5;;
26824;SDS011;14402;48.178;11.566;2022-10-16T01:03:21;3.7;;;2.4;;
26824;SDS011;14402;48.178;11.566;2022-10-16T01:03:37;4.3;;;2.3;;
26824;SDS011;14402;48.178;11.566;2022-10-16T01:04:07;4.3;;;2.3;;
26824;SDS011;14402;48.178;11.566;2022-10-16T01:04:37;4.3;;;2.3;;
26824;SDS011;14402;48.178;11.566;2022-10-16T01:05:07;3.8;;;2.2;;
26824;SDS011;14402;48.178;11.566;2022-10-16T01:05:38;3.3;;;2.0;;
26824;SDS011;14402;48.178;11.566;2022-10-16T01:06:10;3.3;;;2.0;;
26824;SDS011;14402;48.178;11.566;2022-10-16T01:06:39;3.3;;;2.0;;
26824;SDS011;14402;48.178;11.566;2022-10-16T01:07:10;2.8;;;2.0;;
26824;SDS011;14402;48.178;11.566;2022-10-16T01:07:40;2.4;;;2.0;;
26824;SDS011;14402;48.178;11.566;2022-10-16T01:08:08;2.4;;;2.0;;
26824;SDS011;14402;48.178;11.566;2022-10-16T01:08:39;2.4;;;2.0;;
26824;SDS011;14402;48.178;11.566;2022-10-16T01:09:11;2.7;;;2.0;;
26824;SDS011;14402;48.178;11.566;2022-10-16T01:09:40;2.9;;;2.0;;
26824;SDS011;14402;48.178;11.566;2022-10-16T01:10:11;2.9;;;2.0;;
26824;SDS011;14402;48.178;11.566;2022-10-16T01:10:39;2.9;;;2.0;;
26824;SDS011;14402;48.178;11.566;2022-10-16T01:11:10;2.7;;;2.1;;
26824;SDS011;14402;48.178;11.566;2022-10-16T01:11:41;2.4;;;2.2;;
26824;SDS011;14402;48.178;11.566;2022-10-16T01:12:09;2.4;;;2.2;;
26824;SDS011;14402;48.178;11.566;2022-10-16T01:12:40;2.4;;;2.2;;
26824;SDS011;14402;48.178;11.566;2022-10-16T01:13:09;3.1;;;2.0;;
26824;SDS011;14402;48.178;11.566;2022-10-16T01:13:41;3.7;;;1.8;;
26824;SDS011;14402;48.178;11.566;2022-10-16T01:14:11;3.7;;;1.8;;
26824;SDS011;14402;48.178;11.566;2022-10-16T01:14:40;3.7;;;1.8;;
26824;SDS011;14402;48.178;11.566;2022-10-16T01:15:10;3.9;;;1.8;;
26824;SDS011;14402;48.178;11.566;2022-10-16T01:15:41;4.2;;;1.7;;
26824;SDS011;14402;48.178;11.566;2022-10-16T01:16:10;4.2;;;1.7;;
26824;SDS011;14402;48.178;11.566;2022-10-16T01:16:40;4.2;;;1.7;;
26824;SDS011;14402;48.178;11.566;2022-10-16T01:17:11;3.6;;;1.8;;
26824;SDS011;14402;48.178;11.566;2022-10-16T01:17:41;3.1;;;1.9;;
26824;SDS011;14402;48.178;11.566;2022-10-16T01:18:11;3.1;;;1.9;;
26824;SDS011;14402;48.178;11.566;2022-10-16T01:18:42;3.1;;;1.9;;
26824;SDS011;14402;48.178;11.566;2022-10-16T01:19:12;3.2;;;2.0;;
26824;SDS011;14402;48.178;11.566;2022-10-16T01:19:44;3.3;;;2.1;;
26824;SDS011;14402;48.178;11.566;2022-10-16T01:20:12;3.3;;;2.1;;
26824;SDS011;14402;48.178;11.566;2022-10-16T01:20:42;3.3;;;2.1;;
26824;SDS011;14402;48.178;11.566;2022-10-16T01:21:11;3.7;;;1.8;;
26824;SDS011;14402;48.178;11.566;2022-10-16T01:21:41;4.0;;;1.5;;
26824;SDS011;14402;48.178;11.566;2022-10-16T01:22:10;4.0;;;1.5;;
26824;SDS011;14402;48.178;11.566;2022-10-16T01:22:43;4.0;;;1.5;;
26824;SDS011;14402;48.178;11.566;2022-10-16T01:23:15;4.1;;;1.5;;
26824;SDS011;14402;48.178;11.566;2022-10-16T01:23:43;4.1;;;1.6;;
26824;SDS011;14402;48.178;11.566;2022-10-16T01:24:12;4.1;;;1.6;;
26824;SDS011;14402;48.178;11.566;2022-10-16T01:24:42;4.1;;;1.6;;
26824;SDS011;14402;48.178;11.566;2022-10-16T01:25:12;3.4;;;1.7;;
26824;SDS011;14402;48.178;11.566;2022-10-16T01:25:49;2.7;;;1.7;;
26824;SDS011;14402;48.178;11.566;2022-10-16T01:26:14;2.7;;;1.7;;
26824;SDS011;14402;48.178;11.566;2022-10-16T01:26:47;2.7;;;1.7;;
26824;SDS011;14402;48.178;11.566;2022-10-16T01:27:12;4.1;;;1.6;;
26824;SDS011;14402;48.178;11.566;2022-10-16T01:27:41;5.5;;;1.5;;
26824;SDS011;14402;48.178;11.566;2022-10-16T01:28:12;5.5;;;1.5;;
26824;SDS011;14402;48.178;11.566;2022-10-16T01:28:42;5.5;;;1.5;;
26824;SDS011;14402;48.178;11.566;2022-10-16T01:29:13;4.8;;;1.6;;
26824;SDS011;14402;48.178;11.566;2022-10-16T01:29:45;4.0;;;1.7;;
26824;SDS011;14402;48.178;11.566;2022-10-16T01:30:13;4.0;;;1.7;;
26824;SDS011;14402;48.178;11.566;2022-10-16T01:30:42;4.0;;;1.7;;
26824;SDS011;14402;48.178;11.566;2022-10-16T01:31:12;3.2;;;1.5;;
26824;SDS011;14402;48.178;11.566;2022-10-16T01:31:44;2.4;;;1.2;;
26824;SDS011;14402;48.178;11.566;2022-10-16T01:32:15;2.4;;;1.2;;
26824;SDS011;14402;48.178;11.566;2022-10-16T01:32:44;2.4;;;1.2;;
26824;SDS011;14402;48.178;11.566;2022-10-16T01:33:14;2.9;;;1.2;;
26824;SDS011;14402;48.178;11.566;2022-10-16T01:33:43;3.4;;;1.2;;
26824;SDS011;14402;48.178;11.566;2022-10-16T01:34:14;3.4;;;1.2;;
26824;SDS011;14402;48.178;11.566;2022-10-16T01:34:45;3.4;;;1.2;;
26824;SDS011;14402;48.178;11.566;2022-10-16T01:35:14;2.9;;;1.4;;
26824;SDS011;14402;48.178;11.566;2022-10-16T01:35:44;2.4;;;1.5;;
26824;SDS011;14402;48.178;11.566;2022-10-16T01:36:14;2.4;;;1.5;;
26824;SDS011;14402;48.178;11.566;2022-10-16T01:36:45;2.4;;;1.5;;
26824;SDS011;14402;48.178;11.566;2022-10-16T01:37:14;2.9;;;1.5;;
26824;SDS011;14402;48.178;11.566;2022-10-16T01:37:44;3.4;;;1.4;;
26824;SDS011;14402;48.178;11.566;2022-10-16T01:38:15;3.4;;;1.4;;
26824;SDS011;14402;48.178;11.566;2022-10-16T01:38:44;3.4;;;1.4;;
26824;SDS011;14402;48.178;11.566;2022-10-16T01:39:14;4.0;;;1.3;;
26824;SDS011;14402;48.178;11.566;2022-10-16T01:39:45;4.5;;;1.3;;
26824;SDS011;14402;48.178;11.566;2022-10-16T01:40:15;4.5;;;1.3;;
26824;SDS011;14402;48.178;11.566;2022-10-16T01:40:45;4.5;;;1.3;;
26824;SDS011;14402;48.178;11.566;2022-10-16T01:41:14;4.1;;;1.3;;
26824;SDS011;14402;48.178;11.566;2022-10-16T01:41:44;3.6;;;1.3;;
26824;SDS011;14402;48.178;11.566;2022-10-16T01:42:15;3.6;;;1.3;;
26824;SDS011;14402;48.178;11.566;2022-10-16T01:42:46;3.6;;;1.3;;
26824;SDS011;14402;48.178;11.566;2022-10-16T01:43:15;3.6;;;1.2;;
26824;SDS011;14402;48.178;11.566;2022-10-16T01:43:45;3.6;;;1.2;;
26824;SDS011;14402;48.178;11.566;2022-10-16T01:44:16;3.6;;;1.2;;
26824;SDS011;14402;48.178;11.566;2022-10-16T01:44:45;3.6;;;1.2;;
26824;SDS011;14402;48.178;11.566;2022-10-16T01:45:15;4.1;;;1.2;;
26824;SDS011;14402;48.178;11.566;2022-10-16T01:45:45;4.5;;;1.3;;
26824;SDS011;14402;48.178;11.566;2022-10-16T01:46:15;4.5;;;1.3;;
26824;SDS011;14402;48.178;11.566;2022-10-16T01:46:46;4.5;;;1.3;;
26824;SDS011;14402;48.178;11.566;2022-10-16T01:47:15;3.3;;;1.2;;
26824;SDS011;14402;48.178;11.566;2022-10-16T01:47:45;2.2;;;1.2;;
26824;SDS011;14402;48.178;11.566;2022-10-16T01:48:16;2.2;;;1.2;;
26824;SDS011;14402;48.178;11.566;2022-10-16T01:48:46;2.2;;;1.2;;
26824;SDS011;14402;48.178;11.566;2022-10-16T01:49:15;3.0;;;1.2;;
26824;SDS011;14402;48.178;11.566;2022-10-16T01:49:46;3.8;;;1.2;;
26824;SDS011;14402;48.178;11.566;2022-10-16T01:50:16;3.8;;;1.2;;
26824;SDS011;14402;48.178;11.566;2022-10-16T01:50:49;3.8;;;1.2;;
26824;SDS011;14402;48.178;11.566;2022-10-16T01:51:16;3.4;;;1.2;;
26824;SDS011;14402;48.178;11.566;2022-10-16T01:51:47;3.0;;;1.1;;
26824;SDS011;14402;48.178;11.566;2022-10-16T01:52:17;3.0;;;1.1;;
26824;SDS011;14402;48.178;11.566;2022-10-16T01:52:47;3.0;;;1.1;;
26824;SDS011;14402;48.178;11.566;2022-10-16T01:53:16;2.3;;;1.2;;
26824;SDS011;14402;48.178;11.566;2022-10-16T01:53:47;1.7;;;1.2;;
26824;SDS011;14402;48.178;11.566;2022-10-16T01:54:16;1.7;;;1.2;;
26824;SDS011;14402;48.178;11.566;2022-10-16T01:54:47;1.7;;;1.2;;
26824;SDS011;14402;48.178;11.566;2022-10-16T01:55:18;2.3;;;1.2;;
26824;SDS011;14402;48.178;11.566;2022-10-16T01:55:47;2.9;;;1.2;;
26824;SDS011;14402;48.178;11.566;2022-10-16T01:56:17;2.9;;;1.2;;
26824;SDS011;14402;48.178;11.566;2022-10-16T01:56:47;2.9;;;1.2;;
26824;SDS011;14402;48.178;11.566;2022-10-16T01:57:17;2.8;;;1.2;;
26824;SDS011;14402;48.178;11.566;2022-10-16T01:57:47;2.6;;;1.1;;
26824;SDS011;14402;48.178;11.566;2022-10-16T01:58:17;2.6;;;1.1;;
26824;SDS011;14402;48.178;11.566;2022-10-16T01:58:48;2.6;;;1.1;;
26824;SDS011;14402;48.178;11.566;2022-10-16T01:59:18;2.7;;;1.1;;
26824;SDS011;14402;48.178;11.566;2022-10-16T01:59:48;2.8;;;1.1;;
26824;SDS011;14402;48.178;11.566;2022-10-16T02:00:18;2.8;;;1.1;;
26824;SDS011;14402;48.178;11.566;2022-10-16T02:00:48;2.8;;;1.1;;
26824;SDS011;14402;48.178;11.566;2022-10-16T02:01:19;2.9;;;1.2;;
26824;SDS011;14402;48.178;11.566;2022-10-16T02:01:49;3.1;;;1.3;;
26824;SDS011;14402;48.178;11.566;2022-10-16T02:02:18;3.1;;;1.3;;
26824;SDS011;14402;48.178;11.566;2022-10-16T02:02:49;3.1;;;1.3;;
26824;SDS011;14402;48.178;11.566;2022-10-16T02:03:18;4.4;;;1.2;;
26824;SDS011;14402;48.178;11.566;2022-10-16T02:03:49;5.7;;;1.2;;
26824;SDS011;14402;48.178;11.566;2022-10-16T02:04:20;5.7;;;1.2;;
26824;SDS011;14402;48.178;11.566;2022-10-16T02:04:49;5.7;;;1.2;;
26824;SDS011;14402;48.178;11.566;2022-10-16T02:05:20;4.1;;;1.2;;
26824;SDS011;14402;48.178;11.566;2022-10-16T02:05:50;2.4;;;1.2;;
26824;SDS011;14402;48.178;11.566;2022-10-16T02:06:19;2.4;;;1.2;;
26824;SDS011;14402;48.178;11.566;2022-10-16T02:06:49;2.4;;;1.2;;
26824;SDS011;14402;48.178;11.566;2022-10-16T02:07:19;2.5;;;1.2;;
26824;SDS011;14402;48.178;11.566;2022-10-16T02:07:49;2.5;;;1.3;;
26824;SDS011;14402;48.178;11.566;2022-10-16T02:08:19;2.5;;;1.3;;
26824;SDS011;14402;48.178;11.566;2022-10-16T02:08:49;2.5;;;1.3;;
26824;SDS011;14402;48.178;11.566;2022-10-16T02:09:19;2.5;;;1.2;;
26824;SDS011;14402;48.178;11.566;2022-10-16T02:09:49;2.5;;;1.2;;
26824;SDS011;14402;48.178;11.566;2022-10-16T02:10:20;2.5;;;1.2;;
26824;SDS011;14402;48.178;11.566;2022-10-16T02:10:50;2.5;;;1.2;;
26824;SDS011;14402;48.178;11.566;2022-10-16T02:11:20;3.3;;;1.3;;
26824;SDS011;14402;48.178;11.566;2022-10-16T02:11:50;4.1;;;1.4;;
26824;SDS011;14402;48.178;11.566;2022-10-16T02:12:22;4.1;;;1.4;;
26824;SDS011;14402;48.178;11.566;2022-10-16T02:12:51;4.1;;;1.4;;
26824;SDS011;14402;48.178;11.566;2022-10-16T02:13:21;3.9;;;1.2;;
26824;SDS011;14402;48.178;11.566;2022-10-16T02:13:51;3.7;;;1.1;;
26824;SDS011;14402;48.178;11.566;2022-10-16T02:14:20;3.7;;;1.1;;
26824;SDS011;14402;48.178;11.566;2022-10-16T02:14:50;3.7;;;1.1;;
26824;SDS011;14402;48.178;11.566;2022-10-16T02:15:20;3.2;;;1.2;;
26824;SDS011;14402;48.178;11.566;2022-10-16T02:15:51;2.7;;;1.2;;
26824;SDS011;14402;48.178;11.566;2022-10-16T02:16:23;2.7;;;1.2;;
26824;SDS011;14402;48.178;11.566;2022-10-16T02:16:51;2.7;;;1.2;;
26824;SDS011;14402;48.178;11.566;2022-10-16T02:17:22;2.8;;;1.1;;
26824;SDS011;14402;48.178;11.566;2022-10-16T02:17:51;2.9;;;1.0;;
26824;SDS011;14402;48.178;11.566;2022-10-16T02:18:21;2.9;;;1.0;;
26824;SDS011;14402;48.178;11.566;2022-10-16T02:18:51;2.9;;;1.0;;
26824;SDS011;14402;48.178;11.566;2022-10-16T02:19:21;2.8;;;1.0;;
26824;SDS011;14402;48.178;11.566;2022-10-16T02:19:52;2.8;;;1.1;;
26824;SDS011;14402;48.178;11.566;2022-10-16T02:20:24;2.8;;;1.1;;
26824;SDS011;14402;48.178;11.566;2022-10-16T02:20:53;2.8;;;1.1;;
26824;SDS011;14402;48.178;11.566;2022-10-16T02:21:23;3.2;;;1.2;;
26824;SDS011;14402;48.178;11.566;2022-10-16T02:21:53;3.6;;;1.3;;
26824;SDS011;14402;48.178;11.566;2022-10-16T02:22:24;3.6;;;1.3;;
26824;SDS011;14402;48.178;11.566;2022-10-16T02:22:52;3.6;;;1.3;;
26824;SDS011;14402;48.178;11.566;2022-10-16T02:23:23;2.7;;;1.3;;
26824;SDS011;14402;48.178;11.566;2022-10-16T02:23:54;1.8;;;1.3;;
26824;SDS011;14402;48.178;11.566;2022-10-16T02:24:23;1.8;;;1.3;;
26824;SDS011;14402;48.178;11.566;2022-10-16T02:24:53;1.8;;;1.3;;
26824;SDS011;14402;48.178;11.566;2022-10-16T02:25:24;2.1;;;1.3;;
26824;SDS011;14402;48.178;11.566;2022-10-16T02:25:53;2.4;;;1.3;;
26824;SDS011;14402;48.178;11.566;2022-10-16T02:26:28;2.4;;;1.3;;
26824;SDS011;14402;48.178;11.566;2022-10-16T02:26:56;2.4;;;1.3;;
26824;SDS011;14402;48.178;11.566;2022-10-16T02:27:24;4.1;;;1.2;;
26824;SDS011;14402;48.178;11.566;2022-10-16T02:27:53;5.7;;;1.2;;
26824;SDS011;14402;48.178;11.566;2022-10-16T02:28:24;5.7;;;1.2;;
26824;SDS011;14402;48.178;11.566;2022-10-16T02:28:55;5.7;;;1.2;;
26824;SDS011;14402;48.178;11.566;2022-10-16T02:29:24;3.4;;;1.1;;
26824;SDS011;14402;48.178;11.566;2022-10-16T02:29:54;1.1;;;1.0;;
26824;SDS011;14402;48.178;11.566;2022-10-16T02:30:25;1.1;;;1.0;;
26824;SDS011;14402;48.178;11.566;2022-10-16T02:30:55;1.1;;;1.0;;
26824;SDS011;14402;48.178;11.566;2022-10-16T02:31:25;2.6;;;1.1;;
26824;SDS011;14402;48.178;11.566;2022-10-16T02:31:55;4.1;;;1.3;;
26824;SDS011;14402;48.178;11.566;2022-10-16T02:32:24;4.1;;;1.3;;
26824;SDS011;14402;48.178;11.566;2022-10-16T02:32:54;4.1;;;1.3;;
26824;SDS011;14402;48.178;11.566;2022-10-16T02:33:24;2.7;;;1.1;;
26824;SDS011;14402;48.178;11.566;2022-10-16T02:33:54;1.3;;;0.9;;
26824;SDS011;14402;48.178;11.566;2022-10-16T02:34:24;1.3;;;0.9;;
26824;SDS011;14402;48.178;11.566;2022-10-16T02:34:54;1.3;;;0.9;;
26824;SDS011;14402;48.178;11.566;2022-10-16T02:35:24;1.9;;;0.9;;
26824;SDS011;14402;48.178;11.566;2022-10-16T02:35:55;2.5;;;1.0;;
26824;SDS011;14402;48.178;11.566;2022-10-16T02:36:25;2.5;;;1.0;;
26824;SDS011;14402;48.178;11.566;2022-10-16T02:36:55;2.5;;;1.0;;
26824;SDS011;14402;48.178;11.566;2022-10-16T02:37:25;2.3;;;1.0;;
26824;SDS011;14402;48.178;11.566;2022-10-16T02:37:55;2.1;;;1.0;;
26824;SDS011;14402;48.178;11.566;2022-10-16T02:38:25;2.1;;;1.0;;
26824;SDS011;14402;48.178;11.566;2022-10-16T02:38:55;2.1;;;1.0;;
26824;SDS011;14402;48.178;11.566;2022-10-16T02:39:25;2.7;;;1.0;;
26824;SDS011;14402;48.178;11.566;2022-10-16T02:39:56;3.3;;;1.0;;
26824;SDS011;14402;48.178;11.566;2022-10-16T02:40:25;3.3;;;1.0;;
26824;SDS011;14402;48.178;11.566;2022-10-16T02:40:56;3.3;;;1.0;;
26824;SDS011;14402;48.178;11.566;2022-10-16T02:41:26;2.9;;;1.0;;
26824;SDS011;14402;48.178;11.566;2022-10-16T02:41:56;2.5;;;1.0;;
26824;SDS011;14402;48.178;11.566;2022-10-16T02:42:28;2.5;;;1.0;;
26824;SDS011;14402;48.178;11.566;2022-10-16T02:42:56;2.5;;;1.0;;
26824;SDS011;14402;48.178;11.566;2022-10-16T02:43:26;2.8;;;1.0;;
26824;SDS011;14402;48.178;11.566;2022-10-16T02:43:56;3.0;;;1.0;;
26824;SDS011;14402;48.178;11.566;2022-10-16T02:44:26;3.0;;;1.0;;
26824;SDS011;14402;48.178;11.566;2022-10-16T02:44:56;3.0;;;1.0;;
26824;SDS011;14402;48.178;11.566;2022-10-16T02:45:26;2.5;;;0.9;;
26824;SDS011;14402;48.178;11.566;2022-10-16T02:45:56;1.9;;;0.8;;
26824;SDS011;14402;48.178;11.566;2022-10-16T02:46:27;1.9;;;0.8;;
26824;SDS011;14402;48.178;11.566;2022-10-16T02:46:57;1.9;;;0.8;;
26824;SDS011;14402;48.178;11.566;2022-10-16T02:47:27;2.2;;;1.0;;
26824;SDS011;14402;48.178;11.566;2022-10-16T02:47:57;2.4;;;1.2;;
26824;SDS011;14402;48.178;11.566;2022-10-16T02:48:27;2.4;;;1.2;;
26824;SDS011;14402;48.178;11.566;2022-10-16T02:48:57;2.4;;;1.2;;
26824;SDS011;14402;48.178;11.566;2022-10-16T02:49:27;1.9;;;1.0;;
26824;SDS011;14402;48.178;11.566;2022-10-16T02:49:57;1.4;;;0.9;;
26824;SDS011;14402;48.178;11.566;2022-10-16T02:50:27;1.4;;;0.9;;
26824;SDS011;14402;48.178;11.566;2022-10-16T02:50:58;1.4;;;0.9;;
26824;SDS011;14402;48.178;11.566;2022-10-16T02:51:28;2.0;;;1.0;;
26824;SDS011;14402;48.178;11.566;2022-10-16T02:51:58;2.6;;;1.1;;
26824;SDS011;14402;48.178;11.566;2022-10-16T02:52:28;2.6;;;1.1;;
26824;SDS011;14402;48.178;11.566;2022-10-16T02:52:58;2.6;;;1.1;;
26824;SDS011;14402;48.178;11.566;2022-10-16T02:53:28;2.3;;;1.1;;
26824;SDS011;14402;48.178;11.566;2022-10-16T02:53:58;2.0;;;1.1;;
26824;SDS011;14402;48.178;11.566;2022-10-16T02:54:28;2.0;;;1.1;;
26824;SDS011;14402;48.178;11.566;2022-10-16T02:54:58;2.0;;;1.1;;
26824;SDS011;14402;48.178;11.566;2022-10-16T02:55:28;1.9;;;1.0;;
26824;SDS011;14402;48.178;11.566;2022-10-16T02:55:58;1.8;;;0.9;;
26824;SDS011;14402;48.178;11.566;2022-10-16T02:56:29;1.8;;;0.9;;
26824;SDS011;14402;48.178;11.566;2022-10-16T02:56:59;1.8;;;0.9;;
26824;SDS011;14402;48.178;11.566;2022-10-16T02:57:29;2.3;;;0.9;;
26824;SDS011;14402;48.178;11.566;2022-10-16T02:57:59;2.8;;;1.0;;
26824;SDS011;14402;48.178;11.566;2022-10-16T02:58:29;2.8;;;1.0;;
26824;SDS011;14402;48.178;11.566;2022-10-16T02:58:59;2.8;;;1.0;;
26824;SDS011;14402;48.178;11.566;2022-10-16T02:59:29;2.6;;;1.0;;
26824;SDS011;14402;48.178;11.566;2022-10-16T02:59:59;2.4;;;1.0;;
26824;SDS011;14402;48.178;11.566;2022-10-16T03:00:29;2.4;;;1.0;;
26824;SDS011;14402;48.178;11.566;2022-10-16T03:00:59;2.4;;;1.0;;
26824;SDS011;14402;48.178;11.566;2022-10-16T03:01:29;2.3;;;0.9;;
26824;SDS011;14402;48.178;11.566;2022-10-16T03:02:00;2.2;;;0.9;;
26824;SDS011;14402;48.178;11.566;2022-10-16T03:02:30;2.2;;;0.9;;
26824;SDS011;14402;48.178;11.566;2022-10-16T03:03:00;2.2;;;0.9;;
26824;SDS011;14402;48.178;11.566;2022-10-16T03:03:30;2.0;;;0.9;;
26824;SDS011;14402;48.178;11.566;2022-10-16T03:04:00;1.7;;;1.0;;